Time;durP1;ratioP1;P1;durP2;ratioP2;P2;SDS_P1;SDS_P2;PMS_P1;PMS_P2;Temp;Humidity;BMP_temperature;BMP_pressure;BME280_temperature;BME280_humidity;BME280_pressure;Samples;Min_cycle;Max_cycle;Signal;HPM_P1;HPM_P2
2022/10/17 00:01:49;;;;;;;4.10;3.67;;;15.20;99.90;;;;;;5073293;28;20468;-57
2022/10/17 00:04:18;;;;;;;4.53;3.20;;;15.10;99.90;;;;;;5072900;28;20781;-57
2022/10/17 00:06:45;;;;;;;4.80;3.73;;;15.10;99.90;;;;;;5074604;28;20540;-56
2022/10/17 00:09:12;;;;;;;6.40;4.30;;;15.10;99.90;;;;;;5074056;28;20628;-56
2022/10/17 00:11:40;;;;;;;6.17;3.80;;;15.10;99.90;;;;;;5072823;28;20920;-57
2022/10/17 00:14:07;;;;;;;4.33;3.70;;;15.10;99.90;;;;;;5074533;28;20445;-57
2022/10/17 00:16:36;;;;;;;3.90;3.60;;;15.00;99.90;;;;;;5073450;28;21017;-57
2022/10/17 00:19:05;;;;;;;4.70;3.30;;;15.00;99.90;;;;;;5072906;28;20452;-57
2022/10/17 00:21:34;;;;;;;10.80;5.83;;;15.00;99.90;;;;;;5074657;28;20448;-57
2022/10/17 00:24:02;;;;;;;4.80;4.30;;;15.10;99.90;;;;;;5074499;28;20447;-57
2022/10/17 00:26:29;;;;;;;6.10;3.93;;;15.00;99.90;;;;;;5072747;28;20471;-57
2022/10/17 00:28:56;;;;;;;7.00;3.90;;;15.00;99.90;;;;;;5074769;28;20478;-56
2022/10/17 00:31:24;;;;;;;6.50;4.47;;;;;;;;;;5073656;28;20452;-56
2022/10/17 00:33:52;;;;;;;8.10;3.70;;;14.90;99.90;;;;;;5071070;28;20449;-57
2022/10/17 00:36:21;;;;;;;6.10;3.73;;;14.80;99.90;;;;;;5073444;28;20448;-57
2022/10/17 00:38:52;;;;;;;4.90;4.10;;;14.80;99.90;;;;;;5073461;28;20445;-57
2022/10/17 00:41:23;;;;;;;5.50;3.70;;;14.90;99.90;;;;;;5071691;28;20456;-57
2022/10/17 00:43:56;;;;;;;3.50;3.17;;;14.90;99.90;;;;;;5073333;28;20448;-57
2022/10/17 00:46:26;;;;;;;6.63;3.90;;;14.90;99.90;;;;;;5074009;28;20456;-57
2022/10/17 00:48:55;;;;;;;4.20;3.80;;;14.90;99.90;;;;;;5071293;28;20484;-57
2022/10/17 00:51:31;;;;;;;4.20;3.80;;;14.70;99.90;;;;;;5073147;28;20837;-57
2022/10/17 00:54:03;;;;;;;4.23;3.87;;;14.70;99.90;;;;;;5072645;28;20436;-56
2022/10/17 00:56:30;;;;;;;3.93;3.47;;;14.80;99.90;;;;;;5073296;28;20417;-57
2022/10/17 00:58:58;;;;;;;9.47;4.20;;;14.80;99.90;;;;;;5072837;28;20452;-57
2022/10/17 01:01:25;;;;;;;5.83;3.40;;;14.70;99.90;;;;;;5072028;28;20977;-57
2022/10/17 01:03:52;;;;;;;5.90;4.10;;;14.80;99.90;;;;;;5073239;28;20543;-57
2022/10/17 01:06:19;;;;;;;7.57;4.10;;;14.70;99.90;;;;;;5072228;28;21114;-57
2022/10/17 01:08:47;;;;;;;5.93;4.13;;;14.80;99.90;;;;;;5072810;28;20448;-57
2022/10/17 01:11:28;;;;;;;6.53;4.30;;;14.70;99.90;;;;;;5072194;28;20448;-57
2022/10/17 01:14:01;;;;;;;6.27;4.10;;;14.70;99.90;;;;;;5071852;28;20424;-57
2022/10/17 01:16:39;;;;;;;7.43;3.77;;;14.70;99.90;;;;;;5070819;28;20453;-56
2022/10/17 01:19:31;;;;;;;7.47;4.20;;;14.80;99.90;;;;;;5073356;28;20519;-57
2022/10/17 01:22:02;;;;;;;5.00;3.60;;;14.80;99.90;;;;;;5073428;28;20453;-57
2022/10/17 01:24:48;;;;;;;8.10;3.67;;;14.70;99.90;;;;;;5071398;28;20433;-57
2022/10/17 01:27:50;;;;;;;6.63;4.10;;;14.70;99.90;;;;;;5063641;28;20485;-57
2022/10/17 01:30:33;;;;;;;4.07;3.77;;;;;;;;;;5073389;28;20448;-57
2022/10/17 01:33:09;;;;;;;4.97;4.30;;;14.60;99.90;;;;;;5071023;28;20474;-57
2022/10/17 01:35:41;;;;;;;4.30;3.50;;;14.60;99.90;;;;;;5072783;28;20424;-57
2022/10/17 01:38:13;;;;;;;7.90;4.20;;;14.60;99.90;;;;;;5073098;28;20870;-56
2022/10/17 01:40:45;;;;;;;3.53;3.17;;;14.70;99.90;;;;;;5070207;28;20456;-57
2022/10/17 01:43:18;;;;;;;4.10;3.60;;;14.60;99.90;;;;;;5073425;28;20483;-57
2022/10/17 01:45:50;;;;;;;6.37;3.97;;;14.60;99.90;;;;;;5072215;28;20895;-56
2022/10/17 01:48:23;;;;;;;5.40;3.53;;;14.50;99.90;;;;;;5071594;28;20579;-57
2022/10/17 01:50:54;;;;;;;9.13;4.27;;;14.60;99.90;;;;;;5072354;28;20433;-57
2022/10/17 01:53:28;;;;;;;7.37;4.53;;;14.60;99.90;;;;;;5068885;28;20480;-57
2022/10/17 01:55:59;;;;;;;3.80;3.50;;;14.50;99.90;;;;;;5073111;28;20425;-57
2022/10/17 01:58:30;;;;;;;4.67;3.83;;;14.60;99.90;;;;;;5072802;28;20478;-57
2022/10/17 02:01:00;;;;;;;7.40;3.60;;;14.50;99.90;;;;;;5070533;28;20432;-57
2022/10/17 02:03:31;;;;;;;6.60;3.57;;;14.50;99.90;;;;;;5072588;28;20567;-57
2022/10/17 02:05:58;;;;;;;5.97;4.10;;;14.50;99.90;;;;;;5073118;28;20826;-57
2022/10/17 02:08:26;;;;;;;5.60;3.50;;;14.50;99.90;;;;;;5069705;28;21055;-57
2022/10/17 02:10:58;;;;;;;4.50;4.10;;;14.50;99.90;;;;;;5071812;28;20928;-57
2022/10/17 02:13:40;;;;;;;7.00;4.27;;;14.60;99.90;;;;;;5071834;28;20547;-57
2022/10/17 02:16:23;;;;;;;8.10;4.00;;;14.40;99.90;;;;;;5069517;28;20424;-57
2022/10/17 02:19:08;;;;;;;5.30;4.20;;;14.30;99.90;;;;;;5072261;28;20467;-57
2022/10/17 02:21:44;;;;;;;4.40;3.70;;;14.30;99.90;;;;;;5071982;28;20428;-57
2022/10/17 02:24:20;;;;;;;4.83;3.77;;;14.30;99.90;;;;;;5070075;28;20459;-56
2022/10/17 02:26:55;;;;;;;4.60;4.20;;;14.30;99.90;;;;;;5071496;28;20527;-57
2022/10/17 02:29:26;;;;;;;5.70;4.20;;;14.40;99.90;;;;;;5072104;28;20428;-57
2022/10/17 02:31:58;;;;;;;6.20;3.43;;;14.30;99.90;;;;;;5070164;28;20472;-57
2022/10/17 02:34:30;;;;;;;8.57;4.20;;;14.40;99.90;;;;;;5072580;28;20792;-57
2022/10/17 02:37:02;;;;;;;6.93;3.93;;;14.40;99.90;;;;;;5071870;28;20420;-57
2022/10/17 02:39:31;;;;;;;5.57;3.87;;;14.30;99.90;;;;;;5070111;28;20429;-57
2022/10/17 02:42:03;;;;;;;5.23;3.90;;;14.40;99.90;;;;;;5072240;28;20464;-57
2022/10/17 02:44:32;;;;;;;4.90;4.20;;;14.40;99.90;;;;;;5071625;28;20433;-57
2022/10/17 02:47:07;;;;;;;4.10;3.70;;;14.30;99.90;;;;;;5068868;28;20809;-57
2022/10/17 02:49:40;;;;;;;4.07;3.33;;;14.20;99.90;;;;;;5071517;28;20848;-57
2022/10/17 02:52:12;;;;;;;7.70;3.80;;;14.30;99.90;;;;;;5071605;28;20471;-57
2022/10/17 02:54:43;;;;;;;3.40;3.10;;;14.30;99.90;;;;;;5069573;28;20421;-57
2022/10/17 02:57:16;;;;;;;3.53;3.23;;;14.30;99.90;;;;;;5071631;28;20440;-57
2022/10/17 02:59:45;;;;;;;4.13;3.20;;;14.30;99.90;;;;;;5071497;28;20432;-57
2022/10/17 03:02:12;;;;;;;9.40;4.50;;;14.30;99.90;;;;;;5069935;28;20464;-57
2022/10/17 03:04:43;;;;;;;5.83;3.20;;;14.30;99.90;;;;;;5071381;28;20445;-56
2022/10/17 03:07:12;;;;;;;3.73;3.23;;;14.30;99.90;;;;;;5070849;28;20531;-57
2022/10/17 03:09:39;;;;;;;6.50;3.80;;;14.30;99.90;;;;;;5070779;28;20847;-56
2022/10/17 03:12:06;;;;;;;7.67;3.17;;;14.30;99.90;;;;;;5071007;28;20468;-57
2022/10/17 03:14:33;;;;;;;3.50;2.80;;;14.20;99.90;;;;;;5071226;28;20531;-56
2022/10/17 03:17:01;;;;;;;4.33;3.93;;;14.20;99.90;;;;;;5070701;28;20481;-57
2022/10/17 03:19:28;;;;;;;3.93;3.23;;;14.10;99.90;;;;;;5071100;28;20760;-57
2022/10/17 03:21:58;;;;;;;3.30;2.83;;;14.20;99.90;;;;;;5071064;28;20475;-57
2022/10/17 03:24:26;;;;;;;7.27;3.07;;;14.20;99.90;;;;;;5070139;28;20514;-57
2022/10/17 03:26:53;;;;;;;5.43;3.70;;;14.20;99.90;;;;;;5071355;28;21048;-57
2022/10/17 03:29:20;;;;;;;5.60;3.37;;;14.10;99.90;;;;;;5070871;28;20480;-57
2022/10/17 03:31:47;;;;;;;3.87;3.30;;;14.10;99.90;;;;;;5070005;28;20468;-57
2022/10/17 03:34:17;;;;;;;6.80;3.23;;;14.10;99.90;;;;;;5071108;28;20448;-57
2022/10/17 03:36:49;;;;;;;3.37;3.07;;;14.10;99.90;;;;;;5072454;28;20448;-56
2022/10/17 03:39:18;;;;;;;7.90;3.80;;;14.00;99.90;;;;;;5073665;28;20464;-57
2022/10/17 03:41:45;;;;;;;4.50;2.90;;;14.10;99.90;;;;;;5073908;28;20483;-57
2022/10/17 03:44:13;;;;;;;3.60;3.30;;;14.00;99.90;;;;;;5073858;28;20955;-57
2022/10/17 03:46:40;;;;;;;4.47;4.17;;;13.90;99.90;;;;;;5074040;28;21025;-57
2022/10/17 03:49:08;;;;;;;4.10;3.70;;;13.80;99.90;;;;;;5073821;28;20503;-57
2022/10/17 03:51:36;;;;;;;6.50;3.40;;;13.80;99.90;;;;;;5073440;28;20452;-57
2022/10/17 03:54:04;;;;;;;3.83;3.43;;;13.90;99.90;;;;;;5072924;28;20444;-56
2022/10/17 03:56:32;;;;;;;3.87;3.50;;;14.00;99.90;;;;;;5074513;28;20862;-57
2022/10/17 03:58:59;;;;;;;5.73;4.03;;;14.00;99.90;;;;;;5072821;28;20476;-56
2022/10/17 04:01:27;;;;;;;5.83;3.33;;;14.10;99.90;;;;;;5072931;28;20455;-57
2022/10/17 04:03:55;;;;;;;4.53;4.10;;;14.20;99.90;;;;;;5074285;28;20440;-57
2022/10/17 04:06:23;;;;;;;4.13;3.70;;;14.20;99.90;;;;;;5073710;28;20451;-56
2022/10/17 04:08:50;;;;;;;4.70;3.20;;;14.10;99.90;;;;;;5072973;28;20535;-57
2022/10/17 04:11:20;;;;;;;5.60;3.07;;;13.90;99.90;;;;;;5074309;28;20807;-56
2022/10/17 04:13:53;;;;;;;3.57;3.10;;;13.90;99.90;;;;;;5072935;28;20475;-56
2022/10/17 04:16:21;;;;;;;5.77;4.20;;;14.00;99.90;;;;;;5073690;28;20436;-57
2022/10/17 04:18:52;;;;;;;3.77;3.47;;;14.00;99.90;;;;;;5074050;28;20471;-57
2022/10/17 04:21:19;;;;;;;5.17;3.70;;;14.00;99.90;;;;;;5071653;28;20429;-57
2022/10/17 04:23:46;;;;;;;5.33;3.50;;;14.00;99.90;;;;;;5073940;28;20480;-57
2022/10/17 04:26:13;;;;;;;3.30;3.00;;;13.90;99.90;;;;;;5074286;28;20783;-57
2022/10/17 04:28:41;;;;;;;4.77;4.27;;;13.80;99.90;;;;;;5071678;28;20954;-57
2022/10/17 04:31:13;;;;;;;5.30;3.33;;;13.80;99.90;;;;;;5073894;28;20799;-57
2022/10/17 04:33:41;;;;;;;6.30;3.67;;;13.90;99.90;;;;;;5073372;28;20475;-57
2022/10/17 04:36:12;;;;;;;4.90;3.70;;;13.90;99.90;;;;;;5071663;28;21075;-57
2022/10/17 04:38:40;;;;;;;7.40;3.97;;;13.90;99.90;;;;;;5073726;28;20494;-57
2022/10/17 04:41:08;;;;;;;3.90;3.60;;;13.90;99.90;;;;;;5073006;28;20459;-57
2022/10/17 04:43:38;;;;;;;6.30;3.67;;;14.00;99.90;;;;;;5071563;28;20834;-57
2022/10/17 04:46:08;;;;;;;5.73;3.90;;;14.00;99.90;;;;;;5073300;28;20444;-57
2022/10/17 04:48:37;;;;;;;4.20;3.60;;;14.00;99.90;;;;;;5072427;28;20484;-57
2022/10/17 04:51:06;;;;;;;5.40;3.53;;;14.00;99.90;;;;;;5071265;28;20448;-57
2022/10/17 04:53:36;;;;;;;6.20;3.60;;;14.00;99.90;;;;;;5072824;28;20511;-57
2022/10/17 04:56:08;;;;;;;4.40;4.00;;;13.80;99.90;;;;;;5072365;28;20448;-57
2022/10/17 04:58:36;;;;;;;4.53;4.13;;;13.80;99.90;;;;;;5070607;28;20914;-57
2022/10/17 05:01:06;;;;;;;4.60;4.20;;;13.80;99.90;;;;;;5073591;28;20459;-57
2022/10/17 05:03:33;;;;;;;5.57;5.03;;;13.90;99.90;;;;;;5073459;28;20460;-57
2022/10/17 05:06:06;;;;;;;4.70;4.17;;;13.80;99.90;;;;;;5071686;28;20452;-57
2022/10/17 05:08:33;;;;;;;7.40;3.47;;;13.80;99.90;;;;;;5072682;28;20425;-57
2022/10/17 05:11:00;;;;;;;4.27;3.90;;;13.80;99.90;;;;;;5071785;28;20452;-57
2022/10/17 05:13:27;;;;;;;6.37;3.80;;;13.90;99.90;;;;;;5071405;28;20824;-57
2022/10/17 05:15:59;;;;;;;4.50;3.67;;;14.00;99.90;;;;;;5072525;28;20527;-57
2022/10/17 05:18:26;;;;;;;5.47;4.93;;;14.00;99.90;;;;;;5072150;28;20567;-57
2022/10/17 05:20:53;;;;;;;3.97;3.67;;;14.10;99.90;;;;;;5071304;28;20456;-57
2022/10/17 05:23:21;;;;;;;4.83;4.33;;;14.00;99.90;;;;;;5072238;28;20997;-57
2022/10/17 05:25:54;;;;;;;3.93;3.63;;;14.00;99.90;;;;;;5072718;28;20436;-57
2022/10/17 05:28:21;;;;;;;5.17;3.90;;;14.00;99.90;;;;;;5070787;28;20433;-57
2022/10/17 05:30:48;;;;;;;4.17;3.63;;;14.10;99.90;;;;;;5071933;28;20455;-56
2022/10/17 05:33:16;;;;;;;4.60;4.17;;;14.10;99.90;;;;;;5072714;28;20837;-57
2022/10/17 05:35:43;;;;;;;5.60;4.00;;;14.10;99.90;;;;;;5071178;28;20475;-57
2022/10/17 05:38:10;;;;;;;7.60;4.30;;;14.10;99.90;;;;;;5072508;28;20486;-56
2022/10/17 05:40:39;;;;;;;4.97;3.97;;;14.10;99.90;;;;;;5071214;28;20455;-56
2022/10/17 05:43:09;;;;;;;4.30;3.70;;;14.00;99.90;;;;;;5068959;28;20469;-58
2022/10/17 05:45:36;;;;;;;4.63;3.70;;;14.00;99.90;;;;;;5072445;28;20457;-57
2022/10/17 05:48:04;;;;;;;5.10;3.73;;;14.00;99.90;;;;;;5073332;28;20547;-56
2022/10/17 05:50:31;;;;;;;4.10;3.63;;;13.90;99.90;;;;;;5070836;28;20432;-57
2022/10/17 05:52:58;;;;;;;5.40;4.07;;;13.90;99.90;;;;;;5072321;28;20472;-57
2022/10/17 05:55:25;;;;;;;4.23;3.83;;;14.00;99.90;;;;;;5072697;28;20444;-57
2022/10/17 05:57:54;;;;;;;7.60;4.20;;;14.10;99.90;;;;;;5070380;28;20953;-57
2022/10/17 06:00:21;;;;;;;5.83;3.47;;;14.10;99.90;;;;;;5072516;28;20448;-57
2022/10/17 06:02:49;;;;;;;4.70;4.20;;;14.10;99.90;;;;;;5073137;28;20558;-57
2022/10/17 06:05:16;;;;;;;3.97;3.57;;;14.20;99.90;;;;;;5070097;28;20463;-56
2022/10/17 06:07:44;;;;;;;4.90;3.83;;;14.20;99.90;;;;;;5072146;28;20531;-57
2022/10/17 06:10:13;;;;;;;7.33;4.23;;;14.10;99.90;;;;;;5072455;28;21032;-56
2022/10/17 06:12:41;;;;;;;7.97;4.23;;;14.00;99.90;;;;;;5070115;28;20468;-57
2022/10/17 06:15:10;;;;;;;7.33;4.30;;;14.00;99.90;;;;;;5072415;28;20470;-57
2022/10/17 06:17:37;;;;;;;4.30;3.90;;;14.10;99.90;;;;;;5072224;28;20460;-57
2022/10/17 06:20:06;;;;;;;8.20;5.27;;;14.10;99.90;;;;;;5070165;28;20487;-57
2022/10/17 06:22:33;;;;;;;4.60;3.70;;;14.20;99.90;;;;;;5072494;28;20493;-57
2022/10/17 06:25:00;;;;;;;6.53;4.00;;;14.20;99.90;;;;;;5072341;28;20480;-57
2022/10/17 06:27:27;;;;;;;6.43;4.03;;;14.20;99.90;;;;;;5070265;28;20455;-57
2022/10/17 06:29:54;;;;;;;4.87;4.17;;;14.20;99.90;;;;;;5072657;28;20451;-57
2022/10/17 06:32:23;;;;;;;4.67;4.27;;;14.20;99.90;;;;;;5072326;28;20476;-57
2022/10/17 06:34:50;;;;;;;7.43;4.80;;;14.20;99.90;;;;;;5070139;28;20447;-57
2022/10/17 06:37:17;;;;;;;6.00;5.40;;;14.30;99.90;;;;;;5072081;28;20450;-57
2022/10/17 06:39:47;;;;;;;7.60;4.00;;;14.30;99.90;;;;;;5071651;28;20496;-57
2022/10/17 06:42:14;;;;;;;5.23;3.97;;;14.40;99.90;;;;;;5070742;28;20913;-56
2022/10/17 06:44:41;;;;;;;13.17;4.77;;;14.40;99.90;;;;;;5072144;28;20429;-55
2022/10/17 06:47:09;;;;;;;10.73;4.97;;;14.40;99.90;;;;;;5071533;28;20460;-56
2022/10/17 06:49:38;;;;;;;8.70;4.80;;;14.40;99.90;;;;;;5069907;28;20482;-56
2022/10/17 06:52:05;;;;;;;6.03;5.00;;;14.50;99.90;;;;;;5071585;28;20464;-57
2022/10/17 06:54:32;;;;;;;8.13;5.10;;;14.50;99.90;;;;;;5070711;28;20539;-56
2022/10/17 06:56:59;;;;;;;7.43;5.20;;;14.60;99.90;;;;;;5069916;28;20448;-57
2022/10/17 06:59:27;;;;;;;7.70;5.97;;;14.60;99.90;;;;;;5071609;28;20571;-56
2022/10/17 07:01:54;;;;;;;12.57;5.17;;;;;;;;;;5071343;28;20464;-57
2022/10/17 07:04:21;;;;;;;16.33;5.73;;;14.70;99.90;;;;;;5069589;28;20452;-57
2022/10/17 07:06:50;;;;;;;6.00;4.90;;;14.80;99.90;;;;;;5072186;28;20448;-57
2022/10/17 07:09:17;;;;;;;9.70;5.80;;;14.90;99.90;;;;;;5071989;28;20466;-57
2022/10/17 07:11:44;;;;;;;13.60;5.80;;;14.90;99.90;;;;;;5071633;28;20566;-57
2022/10/17 07:14:11;;;;;;;9.07;5.00;;;15.00;99.90;;;;;;5075383;28;20448;-57
2022/10/17 07:16:39;;;;;;;10.20;5.63;;;15.10;99.90;;;;;;5075440;28;20467;-57
2022/10/17 07:19:06;;;;;;;5.37;4.87;;;15.30;99.90;;;;;;5073840;28;20480;-56
2022/10/17 07:21:33;;;;;;;14.43;5.20;;;15.50;99.90;;;;;;5075320;28;20487;-57
2022/10/17 07:24:02;;;;;;;6.87;5.43;;;;;;;;;;5075617;28;20796;-57
2022/10/17 07:26:29;;;;;;;11.27;5.43;;;15.60;99.90;;;;;;5073236;28;20940;-57
2022/10/17 07:28:56;;;;;;;4.70;4.10;;;15.70;99.90;;;;;;5075110;28;20444;-56
2022/10/17 07:31:23;;;;;;;8.00;4.50;;;15.80;99.90;;;;;;5075187;28;20448;-57
2022/10/17 07:33:51;;;;;;;8.27;4.90;;;;;;;;;;5073193;28;20458;-57
2022/10/17 07:36:19;;;;;;;8.87;4.33;;;16.20;99.90;;;;;;5074559;28;20458;-57
2022/10/17 07:38:46;;;;;;;5.00;3.50;;;16.50;99.90;;;;;;5075116;28;20472;-57
2022/10/17 07:41:14;;;;;;;4.60;3.83;;;16.70;99.90;;;;;;5073353;28;20444;-57
2022/10/17 07:43:41;;;;;;;8.00;4.30;;;17.20;99.90;;;;;;5074083;28;20468;-56
2022/10/17 07:46:10;;;;;;;5.77;4.20;;;17.30;99.90;;;;;;5075082;28;20450;-57
2022/10/17 07:48:38;;;;;;;5.37;3.83;;;17.40;99.90;;;;;;5072587;28;20480;-57
2022/10/17 07:51:07;;;;;;;6.00;3.40;;;17.50;99.90;;;;;;5075100;28;20448;-57
2022/10/17 07:53:36;;;;;;;9.93;4.30;;;17.60;99.90;;;;;;5075301;28;20474;-57
2022/10/17 07:56:08;;;;;;;9.27;3.53;;;17.70;99.90;;;;;;5072410;28;20451;-57
2022/10/17 07:58:37;;;;;;;6.80;4.07;;;17.70;99.90;;;;;;5074923;28;20432;-57
2022/10/17 08:01:06;;;;;;;6.40;3.60;;;17.80;99.90;;;;;;5075090;28;20540;-57
2022/10/17 08:03:34;;;;;;;6.23;4.33;;;17.80;99.90;;;;;;5072546;28;20973;-57
2022/10/17 08:06:02;;;;;;;8.90;4.50;;;17.80;99.90;;;;;;5074269;28;20452;-57
2022/10/17 08:08:30;;;;;;;7.43;3.57;;;18.10;99.90;;;;;;5074877;28;20528;-57
2022/10/17 08:11:02;;;;;;;3.40;3.10;;;18.40;99.90;;;;;;5072592;28;20450;-57
2022/10/17 08:13:30;;;;;;;9.40;3.93;;;18.50;99.90;;;;;;5074321;28;20496;-57
2022/10/17 08:16:01;;;;;;;9.60;3.80;;;18.70;99.90;;;;;;5074270;28;20467;-57
2022/10/17 08:18:28;;;;;;;4.67;3.33;;;18.70;99.90;;;;;;5072544;28;20431;-57
2022/10/17 08:20:59;;;;;;;5.80;2.90;;;18.80;99.90;;;;;;5074580;28;20490;-56
2022/10/17 08:23:26;;;;;;;3.97;3.23;;;18.90;99.90;;;;;;5073318;28;20472;-57
2022/10/17 08:25:53;;;;;;;6.80;3.80;;;19.00;99.90;;;;;;5071777;28;20455;-57
2022/10/17 08:28:20;;;;;;;4.57;3.33;;;19.30;99.90;;;;;;5074507;28;20459;-57
2022/10/17 08:30:47;;;;;;;4.47;3.97;;;19.30;99.90;;;;;;5074375;28;20847;-57
2022/10/17 08:33:15;;;;;;;7.60;3.80;;;19.50;99.90;;;;;;5071256;28;20461;-56
2022/10/17 08:35:42;;;;;;;4.00;2.60;;;19.40;99.90;;;;;;5073765;28;20444;-57
2022/10/17 08:38:10;;;;;;;4.83;3.60;;;19.40;99.90;;;;;;5073465;28;20445;-57
2022/10/17 08:40:41;;;;;;;7.50;3.40;;;19.60;99.90;;;;;;5071267;28;20868;-57
2022/10/17 08:43:46;;;;;;;6.20;3.70;;;19.80;99.90;;;;;;5073290;28;20460;-56
2022/10/17 08:46:13;;;;;;;6.80;4.20;;;19.70;99.90;;;;;;5010845;28;20558;-57
2022/10/17 08:48:45;;;;;;;8.53;3.20;;;19.80;99.90;;;;;;5009337;28;20474;-57
2022/10/17 08:51:15;;;;;;;6.40;4.50;;;19.70;99.90;;;;;;5011747;28;20427;-57
2022/10/17 08:53:49;;;;;;;7.37;3.53;;;19.80;99.90;;;;;;5024808;28;20812;-56
2022/10/17 08:56:19;;;;;;;8.63;3.90;;;19.70;99.90;;;;;;5070448;28;20424;-57
2022/10/17 08:58:47;;;;;;;8.17;4.20;;;20.00;99.90;;;;;;5073568;28;20927;-57
2022/10/17 09:01:36;;;;;;;7.20;3.63;;;20.10;99.90;;;;;;5073028;28;20527;-57
2022/10/17 09:04:29;;;;;;;6.83;4.10;;;20.20;99.90;;;;;;5071525;28;20429;-57
2022/10/17 09:07:04;;;;;;;7.63;3.87;;;20.40;99.90;;;;;;5073765;28;20433;-57
2022/10/17 09:09:40;;;;;;;3.83;3.10;;;20.60;99.90;;;;;;5071333;28;20815;-57
2022/10/17 09:12:17;;;;;;;5.10;3.90;;;20.60;99.90;;;;;;5073378;28;20482;-56
2022/10/17 09:15:26;;;;;;;5.23;4.27;;;20.60;99.90;;;;;;5073043;28;20455;-57
2022/10/17 09:17:56;;;;;;;6.33;3.43;;;20.80;99.90;;;;;;5055836;28;20492;-57
2022/10/17 09:20:30;;;;;;;5.90;3.87;;;21.00;99.90;;;;;;5073215;28;20530;-57
2022/10/17 09:23:00;;;;;;;3.80;3.50;;;21.20;99.90;;;;;;5072870;28;20478;-57
2022/10/17 09:25:28;;;;;;;9.93;3.13;;;21.30;99.90;;;;;;5071602;28;20452;-57
2022/10/17 09:28:06;;;;;;;3.57;3.27;;;21.20;99.90;;;;;;5073281;28;20444;-56
2022/10/17 09:30:37;;;;;;;5.30;3.70;;;21.20;99.90;;;;;;5073067;28;20450;-57
2022/10/17 09:33:12;;;;;;;3.40;3.10;;;21.30;99.90;;;;;;5070684;28;20475;-57
2022/10/17 09:35:42;;;;;;;3.37;3.07;;;21.50;99.90;;;;;;5072068;28;20909;-57
2022/10/17 09:38:16;;;;;;;3.83;3.10;;;21.50;99.90;;;;;;5073262;28;20449;-57
2022/10/17 09:40:44;;;;;;;2.87;2.60;;;;;;;;;;5071416;28;20559;-57
2022/10/17 09:43:14;;;;;;;7.83;3.40;;;21.80;99.90;;;;;;5072302;28;20468;-57
2022/10/17 09:45:46;;;;;;;5.40;3.70;;;21.90;99.90;;;;;;5072278;28;20935;-57
2022/10/17 09:48:22;;;;;;;6.73;3.40;;;22.10;99.90;;;;;;5070706;28;20853;-57
2022/10/17 09:50:56;;;;;;;4.43;3.30;;;22.10;99.90;;;;;;5072914;28;20782;-57
2022/10/17 09:53:26;;;;;;;3.30;2.73;;;22.30;99.90;;;;;;5072732;28;20582;-56
2022/10/17 09:55:56;;;;;;;8.63;3.23;;;;;;;;;;5070246;28;20449;-57
2022/10/17 09:58:23;;;;;;;3.73;3.10;;;22.40;99.90;;;;;;5072346;28;20455;-57
2022/10/17 10:00:51;;;;;;;4.23;3.00;;;22.60;99.90;;;;;;5072818;28;20502;-57
2022/10/17 10:03:20;;;;;;;4.67;2.80;;;22.60;99.90;;;;;;5069661;28;20948;-57
2022/10/17 10:06:02;;;;;;;4.63;3.07;;;23.00;99.90;;;;;;5072123;28;20882;-57
2022/10/17 10:08:31;;;;;;;4.97;3.73;;;;;;;;;;5070386;28;20425;-57
2022/10/17 10:11:02;;;;;;;5.07;3.13;;;24.00;99.90;;;;;;5071828;28;20451;-58
2022/10/17 10:13:30;;;;;;;5.40;3.10;;;;;;;;;;5071715;28;20551;-57
2022/10/17 10:16:15;;;;;;;5.10;2.90;;;25.30;99.90;;;;;;5069884;28;20455;-57
2022/10/17 10:18:47;;;;;;;5.30;3.57;;;25.80;99.90;;;;;;5072039;28;20470;-57
2022/10/17 10:21:18;;;;;;;4.73;2.80;;;26.40;99.90;;;;;;5072079;28;20990;-57
2022/10/17 10:24:02;;;;;;;6.30;3.13;;;27.10;99.90;;;;;;5070500;28;20492;-57
2022/10/17 10:26:34;;;;;;;3.27;2.47;;;27.60;99.90;;;;;;5072031;28;20515;-57
2022/10/17 10:29:05;;;;;;;2.50;2.30;;;27.10;99.90;;;;;;5072439;28;20447;-57
2022/10/17 10:31:35;;;;;;;2.73;2.53;;;27.20;99.90;;;;;;5070938;28;20778;-57
2022/10/17 10:34:14;;;;;;;8.83;2.90;;;27.20;99.60;;;;;;5072159;28;20444;-57
2022/10/17 10:36:56;;;;;;;2.83;2.53;;;27.50;99.60;;;;;;5072536;28;20424;-57
2022/10/17 10:39:32;;;;;;;2.93;2.50;;;27.60;99.30;;;;;;5070087;28;20424;-57
2022/10/17 10:42:00;;;;;;;3.73;2.83;;;27.90;99.30;;;;;;5072027;28;20468;-58
2022/10/17 10:44:30;;;;;;;6.20;2.90;;;28.50;99.10;;;;;;5072016;28;20452;-57
2022/10/17 10:47:14;;;;;;;3.50;2.60;;;28.50;97.90;;;;;;5071498;28;20463;-57
2022/10/17 10:49:42;;;;;;;6.90;2.97;;;28.50;97.50;;;;;;5076089;28;20877;-57
2022/10/17 10:52:21;;;;;;;3.70;2.70;;;28.90;99.90;;;;;;5075784;28;20468;-57
2022/10/17 10:54:55;;;;;;;8.13;2.90;;;28.60;96.70;;;;;;5073739;28;20961;-57
2022/10/17 10:57:28;;;;;;;3.00;2.60;;;28.80;96.60;;;;;;5076593;28;20515;-57
2022/10/17 11:00:00;;;;;;;5.20;2.53;;;28.70;96.10;;;;;;5075592;28;20500;-57
2022/10/17 11:02:33;;;;;;;7.40;3.20;;;28.70;96.00;;;;;;5074071;28;20487;-57
2022/10/17 11:05:04;;;;;;;4.80;3.20;;;28.50;95.80;;;;;;5075708;28;20511;-57
2022/10/17 11:07:39;;;;;;;4.77;2.43;;;28.70;97.30;;;;;;5075512;28;20459;-57
2022/10/17 11:10:14;;;;;;;4.17;2.87;;;28.80;95.60;;;;;;5075743;28;20424;-57
2022/10/17 11:12:45;;;;;;;2.20;2.10;;;29.30;95.50;;;;;;5075713;28;20471;-57
2022/10/17 11:15:21;;;;;;;3.73;2.40;;;29.50;93.50;;;;;;5074106;28;20413;-57
2022/10/17 11:17:56;;;;;;;2.97;2.17;;;29.40;94.80;;;;;;5075889;28;20459;-57
2022/10/17 11:20:30;;;;;;;5.37;2.90;;;29.90;93.00;;;;;;5074870;28;20827;-57
2022/10/17 11:23:18;;;;;;;3.07;2.07;;;30.10;91.90;;;;;;5074067;28;20567;-57
2022/10/17 11:25:47;;;;;;;3.93;2.50;;;29.60;90.40;;;;;;5074555;28;20468;-57
2022/10/17 11:28:16;;;;;;;2.97;2.60;;;29.50;91.00;;;;;;5075326;28;20790;-57
2022/10/17 11:30:49;;;;;;;2.77;2.13;;;29.90;90.80;;;;;;5073283;28;20436;-57
2022/10/17 11:33:25;;;;;;;3.07;2.57;;;30.40;89.40;;;;;;5075081;28;20558;-57
2022/10/17 11:35:57;;;;;;;11.63;2.87;;;30.40;86.80;;;;;;5075234;28;20433;-57
2022/10/17 11:38:41;;;;;;;12.23;2.50;;;30.60;83.80;;;;;;5073460;28;20424;-57
2022/10/17 11:41:13;;;;;;;3.40;2.37;;;30.50;83.40;;;;;;5075038;28;20798;-57
2022/10/17 11:43:48;;;;;;;6.13;2.70;;;30.40;84.90;;;;;;5074885;28;20535;-57
2022/10/17 11:46:19;;;;;;;3.37;2.03;;;30.50;82.80;;;;;;5073517;28;20417;-57
2022/10/17 11:48:59;;;;;;;3.87;2.43;;;30.90;82.60;;;;;;5072905;28;20479;-57
2022/10/17 11:51:26;;;;;;;3.30;2.23;;;30.70;81.70;;;;;;5074238;28;20468;-56
2022/10/17 11:54:02;;;;;;;3.90;2.20;;;30.70;81.40;;;;;;5072420;28;20543;-57
2022/10/17 11:56:38;;;;;;;5.10;2.47;;;30.10;80.00;;;;;;5073349;28;20918;-57
2022/10/17 11:59:27;;;;;;;4.00;2.43;;;29.90;81.10;;;;;;5074903;28;20790;-57
2022/10/17 12:02:00;;;;;;;9.33;2.83;;;30.00;80.70;;;;;;5073872;28;20534;-57
2022/10/17 12:04:40;;;;;;;2.60;2.40;;;29.60;79.50;;;;;;5074447;28;20542;-57
2022/10/17 12:07:14;;;;;;;3.93;2.50;;;29.30;80.00;;;;;;5072254;28;20934;-57
2022/10/17 12:09:51;;;;;;;2.83;2.40;;;29.00;89.10;;;;;;5073659;28;20432;-57
2022/10/17 12:12:27;;;;;;;2.50;2.20;;;28.90;85.80;;;;;;5073888;28;20514;-57
2022/10/17 12:14:54;;;;;;;4.97;2.70;;;28.90;82.90;;;;;;5071263;28;20793;-57
2022/10/17 12:17:37;;;;;;;3.00;2.33;;;28.40;84.30;;;;;;5073843;28;20460;-56
2022/10/17 12:20:27;;;;;;;4.63;2.60;;;28.10;84.90;;;;;;5073225;28;20427;-57
2022/10/17 12:22:56;;;;;;;3.63;2.00;;;27.50;84.70;;;;;;5071516;28;20504;-57
2022/10/17 12:25:29;;;;;;;3.30;2.20;;;27.40;86.90;;;;;;5073905;28;20522;-57
2022/10/17 12:28:17;;;;;;;2.10;1.90;;;27.10;87.70;;;;;;5073744;28;20439;-56
2022/10/17 12:30:53;;;;;;;2.57;2.37;;;27.10;87.90;;;;;;5071960;28;20441;-56
2022/10/17 12:33:25;;;;;;;3.30;2.50;;;27.30;88.20;;;;;;5074040;28;20468;-57
2022/10/17 12:36:39;;;;;;;2.63;2.13;;;27.70;87.60;;;;;;5073845;28;20462;-57
2022/10/17 12:39:48;;;;;;;3.00;2.17;;;27.90;85.80;;;;;;5073689;28;20934;-57
2022/10/17 12:42:44;;;;;;;4.33;2.43;;;28.50;85.80;;;;;;5072373;28;20588;-56
2022/10/17 12:45:46;;;;;;;4.23;2.40;;;28.50;83.90;;;;;;5070415;28;20807;-57
2022/10/17 12:48:13;;;;;;;2.57;2.20;;;29.00;83.60;;;;;;5069123;28;20479;-57
2022/10/17 12:51:02;;;;;;;2.43;2.23;;;28.80;83.60;;;;;;5073125;28;20451;-56
2022/10/17 12:53:39;;;;;;;2.63;2.10;;;28.40;83.90;;;;;;5071567;28;20474;-57
2022/10/17 12:56:06;;;;;;;6.60;3.00;;;28.60;82.50;;;;;;5073492;28;20424;-56
2022/10/17 12:58:36;;;;;;;2.77;2.47;;;28.80;83.50;;;;;;5073175;28;20445;-56
2022/10/17 13:01:04;;;;;;;5.23;2.10;;;28.80;83.20;;;;;;5072819;28;20533;-57
2022/10/17 13:03:34;;;;;;;2.30;2.10;;;28.70;83.60;;;;;;5073359;28;20559;-56
2022/10/17 13:06:06;;;;;;;4.40;2.33;;;28.90;84.70;;;;;;5071942;28;20420;-57
2022/10/17 13:08:35;;;;;;;4.77;2.60;;;28.70;84.20;;;;;;5073245;28;20459;-56
2022/10/17 13:11:04;;;;;;;2.97;2.67;;;28.80;83.20;;;;;;5072225;28;20998;-57
2022/10/17 13:13:41;;;;;;;3.40;2.40;;;29.00;82.50;;;;;;5070714;28;20511;-56